Time;durP1;ratioP1;P1;durP2;ratioP2;P2;SDS_P1;SDS_P2;PMS_P1;PMS_P2;Temp;Humidity;BMP_temperature;BMP_pressure;BME280_temperature;BME280_humidity;BME280_pressure;Samples;Min_cycle;Max_cycle;Signal;HPM_P1;HPM_P2
2023/09/17 00:01:56;;;;;;;5.07;4.88;;;17.10;99.90;;;;;;4189380;28;20363;-63
2023/09/17 00:04:16;;;;;;;4.60;4.20;;;17.10;99.90;;;;;;4191028;28;20083;-62
2023/09/17 00:06:36;;;;;;;4.85;4.65;;;17.00;99.90;;;;;;4191588;28;20078;-62
2023/09/17 00:08:57;;;;;;;4.32;3.92;;;17.00;99.90;;;;;;4193182;28;20239;-63
2023/09/17 00:11:17;;;;;;;4.35;4.00;;;17.00;99.90;;;;;;4191075;28;20281;-63
2023/09/17 00:13:38;;;;;;;4.40;4.18;;;16.90;99.90;;;;;;4190861;28;20048;-63
2023/09/17 00:15:59;;;;;;;4.72;4.60;;;16.80;99.90;;;;;;4191072;28;20366;-63
2023/09/17 00:18:19;;;;;;;4.88;4.57;;;16.80;99.90;;;;;;4189736;28;20048;-63
2023/09/17 00:20:39;;;;;;;5.78;5.68;;;16.80;99.90;;;;;;4189484;28;20075;-62
2023/09/17 00:23:00;;;;;;;5.53;5.15;;;16.80;99.90;;;;;;4190426;28;20051;-63
2023/09/17 00:25:20;;;;;;;4.45;4.35;;;16.70;99.90;;;;;;4193351;28;20048;-63
2023/09/17 00:27:40;;;;;;;4.80;4.50;;;16.70;99.90;;;;;;4193235;28;20044;-63
2023/09/17 00:30:01;;;;;;;5.50;5.13;;;16.60;99.90;;;;;;4192383;28;20055;-63
2023/09/17 00:32:21;;;;;;;6.05;5.50;;;16.60;99.90;;;;;;4191785;28;20091;-63
2023/09/17 00:34:41;;;;;;;4.93;4.82;;;16.70;99.90;;;;;;4195518;28;20051;-63
2023/09/17 00:37:01;;;;;;;6.07;5.70;;;16.70;99.90;;;;;;4192639;28;20048;-63
2023/09/17 00:39:21;;;;;;;5.22;4.97;;;16.70;99.90;;;;;;4192844;28;20047;-63
2023/09/17 00:41:41;;;;;;;6.32;5.97;;;16.70;99.90;;;;;;4194156;28;20071;-63
2023/09/17 00:44:02;;;;;;;5.47;5.10;;;16.70;99.90;;;;;;4192285;28;20112;-63
2023/09/17 00:46:22;;;;;;;5.75;5.28;;;16.70;99.90;;;;;;4192739;28;20208;-63
2023/09/17 00:48:43;;;;;;;5.57;5.13;;;16.60;99.90;;;;;;4190807;28;20048;-63
2023/09/17 00:51:03;;;;;;;7.63;6.95;;;16.70;99.90;;;;;;4189783;28;20048;-63
2023/09/17 00:53:24;;;;;;;6.63;5.70;;;16.60;99.90;;;;;;4191262;28;20051;-63
2023/09/17 00:55:44;;;;;;;5.15;4.90;;;16.50;99.90;;;;;;4192160;28;20059;-63
2023/09/17 00:58:06;;;;;;;6.00;5.80;;;16.50;99.90;;;;;;4192378;28;20094;-63
2023/09/17 01:00:26;;;;;;;5.20;4.93;;;16.50;99.90;;;;;;4201547;28;20047;-63
2023/09/17 01:02:47;;;;;;;4.18;4.00;;;16.60;99.90;;;;;;4192338;28;20052;-63
2023/09/17 01:05:08;;;;;;;5.70;5.32;;;16.60;99.90;;;;;;4192711;28;20051;-63
2023/09/17 01:07:32;;;;;;;5.07;4.80;;;16.60;99.90;;;;;;4192247;28;20044;-63
2023/09/17 01:09:54;;;;;;;6.38;5.35;;;16.60;99.90;;;;;;4192269;28;20056;-63
2023/09/17 01:12:16;;;;;;;4.65;4.45;;;16.60;99.90;;;;;;4190963;28;20068;-63
2023/09/17 01:14:37;;;;;;;5.63;5.13;;;16.50;99.90;;;;;;4191421;28;20447;-63
2023/09/17 01:17:00;;;;;;;5.07;4.97;;;16.40;99.90;;;;;;4193903;28;20041;-63
2023/09/17 01:19:26;;;;;;;;;;;16.40;99.90;;;;;;4193066;28;20055;-63
2023/09/17 01:22:11;;;;;;;5.68;5.38;;;16.30;99.90;;;;;;4203879;28;19924;-63
2023/09/17 01:24:48;;;;;;;6.63;6.22;;;16.40;99.90;;;;;;4192396;28;20083;-63
2023/09/17 01:27:12;;;;;;;6.10;5.75;;;16.40;99.90;;;;;;4191222;28;20044;-63
2023/09/17 01:29:39;;;;;;;9.05;6.38;;;16.40;99.90;;;;;;4190547;28;20040;-63
2023/09/17 01:31:59;;;;;;;6.35;6.05;;;16.30;99.90;;;;;;4192267;28;20123;-63
2023/09/17 01:34:19;;;;;;;6.43;5.90;;;16.30;99.90;;;;;;4191789;28;20043;-63
2023/09/17 01:36:42;;;;;;;6.38;5.57;;;16.20;99.90;;;;;;4191508;28;20047;-63
2023/09/17 01:39:22;;;;;;;6.18;5.30;;;16.10;99.90;;;;;;4204225;28;20062;-63
2023/09/17 01:41:44;;;;;;;7.40;6.80;;;16.00;99.90;;;;;;4194901;28;20063;-63
2023/09/17 01:44:06;;;;;;;6.70;6.20;;;15.90;99.90;;;;;;4193013;28;20048;-64
2023/09/17 01:46:26;;;;;;;5.72;5.43;;;15.90;99.90;;;;;;4194325;28;20043;-64
2023/09/17 01:48:47;;;;;;;6.60;6.20;;;15.90;99.90;;;;;;4192894;28;20244;-63
2023/09/17 01:51:07;;;;;;;7.65;6.10;;;16.00;99.90;;;;;;4192452;28;20048;-64
2023/09/17 01:53:28;;;;;;;5.75;5.45;;;16.10;99.90;;;;;;4192112;28;20367;-64
2023/09/17 01:55:52;;;;;;;5.50;5.00;;;16.10;99.90;;;;;;4191475;28;20048;-64
2023/09/17 01:58:12;;;;;;;6.35;5.78;;;16.10;99.90;;;;;;4190600;28;20299;-64
2023/09/17 02:00:32;;;;;;;7.28;6.15;;;16.20;99.90;;;;;;4192578;28;20056;-64
2023/09/17 02:02:53;;;;;;;9.60;6.15;;;16.20;99.90;;;;;;4191216;28;20036;-64
2023/09/17 02:05:16;;;;;;;6.70;4.93;;;16.10;99.90;;;;;;4189298;28;20052;-64
2023/09/17 02:07:36;;;;;;;5.18;5.03;;;16.00;99.90;;;;;;4192412;28;20366;-64
2023/09/17 02:09:56;;;;;;;6.43;5.20;;;16.00;99.90;;;;;;4193249;28;20046;-64
2023/09/17 02:12:16;;;;;;;4.95;4.53;;;15.90;99.90;;;;;;4197658;28;20259;-64
2023/09/17 02:14:36;;;;;;;5.05;4.85;;;15.90;99.90;;;;;;4191146;28;20044;-64
2023/09/17 02:16:57;;;;;;;6.57;6.07;;;15.80;99.90;;;;;;4191093;28;20079;-64
2023/09/17 02:19:17;;;;;;;6.40;5.95;;;15.80;99.90;;;;;;4190067;28;20048;-64
2023/09/17 02:21:37;;;;;;;5.80;5.35;;;15.80;99.90;;;;;;4189257;28;20052;-64
2023/09/17 02:23:57;;;;;;;5.10;4.60;;;15.80;99.90;;;;;;4190984;28;20293;-64
2023/09/17 02:26:18;;;;;;;6.63;6.32;;;15.90;99.90;;;;;;4190608;28;20091;-64
2023/09/17 02:28:38;;;;;;;6.10;5.80;;;15.90;99.90;;;;;;4189798;28;20048;-64
2023/09/17 02:30:59;;;;;;;5.10;4.90;;;15.80;99.90;;;;;;4190598;28;20136;-64
2023/09/17 02:33:19;;;;;;;6.55;5.88;;;15.80;99.90;;;;;;4189416;28;20063;-64
2023/09/17 02:35:39;;;;;;;5.78;5.50;;;15.80;99.90;;;;;;4191848;28;20083;-63
2023/09/17 02:38:00;;;;;;;5.85;5.55;;;15.90;99.90;;;;;;4191604;28;20044;-64
2023/09/17 02:40:20;;;;;;;5.75;5.35;;;15.80;99.90;;;;;;4191643;28;20083;-64
2023/09/17 02:42:45;;;;;;;6.18;5.75;;;15.80;99.90;;;;;;4191686;28;20079;-64
2023/09/17 02:45:08;;;;;;;5.75;5.32;;;15.80;99.90;;;;;;4189943;28;20241;-64
2023/09/17 02:47:28;;;;;;;4.90;4.45;;;15.90;99.90;;;;;;4192435;28;20047;-64
2023/09/17 02:49:49;;;;;;;7.43;7.00;;;15.90;99.90;;;;;;4190194;28;20043;-64
2023/09/17 02:52:09;;;;;;;7.80;6.85;;;15.80;99.90;;;;;;4191546;28;20036;-64
2023/09/17 02:54:30;;;;;;;6.78;5.68;;;15.80;99.90;;;;;;4190419;28;20155;-64
2023/09/17 02:56:50;;;;;;;7.43;6.80;;;15.70;99.90;;;;;;4190785;28;20044;-64
2023/09/17 02:59:11;;;;;;;31.70;7.57;;;15.70;99.90;;;;;;4192237;28;20056;-64
2023/09/17 03:01:31;;;;;;;10.45;6.28;;;15.70;99.90;;;;;;4192378;28;20044;-64
2023/09/17 03:03:51;;;;;;;25.13;6.70;;;15.70;99.90;;;;;;4192778;28;20429;-64
2023/09/17 03:06:12;;;;;;;6.30;6.00;;;15.70;99.90;;;;;;4193869;28;20040;-64
2023/09/17 03:08:32;;;;;;;105.97;8.93;;;15.70;99.90;;;;;;4192168;28;20359;-64
2023/09/17 03:10:59;;;;;;;99.72;8.32;;;15.60;99.90;;;;;;4192170;28;20048;-64
2023/09/17 03:13:19;;;;;;;7.63;5.90;;;15.60;99.90;;;;;;4204452;28;20099;-64
2023/09/17 03:15:39;;;;;;;29.77;7.05;;;15.60;99.90;;;;;;4191855;28;20046;-65
2023/09/17 03:17:59;;;;;;;80.90;5.85;;;15.60;99.90;;;;;;4190996;28;20048;-64
2023/09/17 03:20:22;;;;;;;25.98;6.82;;;15.60;99.90;;;;;;4189552;28;20112;-65
2023/09/17 03:22:43;;;;;;;13.68;5.28;;;15.60;99.90;;;;;;4190424;28;20040;-65
2023/09/17 03:25:03;;;;;;;81.53;7.15;;;15.60;99.90;;;;;;4189750;28;20048;-65
2023/09/17 03:27:24;;;;;;;8.30;4.88;;;15.60;99.90;;;;;;4191042;28;20083;-64
2023/09/17 03:29:44;;;;;;;13.40;6.38;;;15.60;99.90;;;;;;4193571;28;20078;-64
2023/09/17 03:32:04;;;;;;;6.95;6.68;;;15.60;99.90;;;;;;4190485;28;20086;-65
2023/09/17 03:34:25;;;;;;;46.05;5.68;;;15.60;99.90;;;;;;4191344;28;20075;-64
2023/09/17 03:36:45;;;;;;;33.63;5.47;;;15.60;99.90;;;;;;4192214;28;20367;-65
2023/09/17 03:39:08;;;;;;;5.00;4.80;;;15.50;99.90;;;;;;4190651;28;20067;-65
2023/09/17 03:41:28;;;;;;;5.70;5.43;;;15.60;99.90;;;;;;4190375;28;20102;-65
2023/09/17 03:43:49;;;;;;;5.38;5.07;;;15.70;99.90;;;;;;4189948;28;20063;-65
2023/09/17 03:46:10;;;;;;;16.85;4.70;;;15.70;99.90;;;;;;4187818;28;20102;-65
2023/09/17 03:48:32;;;;;;;6.07;5.05;;;15.60;99.90;;;;;;4186279;28;20122;-65
2023/09/17 03:50:52;;;;;;;6.32;4.65;;;15.60;99.90;;;;;;4189729;28;20048;-65
2023/09/17 03:53:13;;;;;;;4.28;4.05;;;15.60;99.90;;;;;;4189329;28;20374;-65
2023/09/17 03:55:34;;;;;;;4.57;4.28;;;15.60;99.90;;;;;;4190066;28;20091;-65
2023/09/17 03:57:57;;;;;;;5.88;5.53;;;15.60;99.90;;;;;;4188551;28;20040;-65
2023/09/17 04:00:18;;;;;;;5.80;4.05;;;15.60;99.90;;;;;;4190269;28;20304;-64
2023/09/17 04:02:38;;;;;;;6.13;5.72;;;15.50;99.90;;;;;;4189926;28;20068;-65
2023/09/17 04:04:59;;;;;;;7.80;6.07;;;15.50;99.90;;;;;;4191022;28;20079;-65
2023/09/17 04:07:19;;;;;;;30.75;6.65;;;15.60;99.90;;;;;;4190968;28;20147;-65
2023/09/17 04:09:39;;;;;;;4.80;4.40;;;15.50;99.90;;;;;;4189835;28;20114;-64
2023/09/17 04:12:04;;;;;;;5.82;5.45;;;15.60;99.90;;;;;;4187220;28;20282;-65
2023/09/17 04:14:23;;;;;;;3.85;3.63;;;15.60;99.90;;;;;;4189893;28;20087;-65
2023/09/17 04:16:46;;;;;;;3.17;3.08;;;15.60;99.90;;;;;;4190054;28;20047;-65
2023/09/17 04:19:06;;;;;;;7.28;3.67;;;15.60;99.90;;;;;;4190476;28;20107;-65
2023/09/17 04:21:26;;;;;;;3.72;3.53;;;15.60;99.90;;;;;;4188975;28;20036;-65
2023/09/17 04:23:46;;;;;;;6.68;3.83;;;15.60;99.90;;;;;;4192260;28;20064;-65
2023/09/17 04:26:07;;;;;;;4.47;4.38;;;15.60;99.90;;;;;;4204790;28;20097;-65
2023/09/17 04:28:27;;;;;;;4.50;4.22;;;15.70;99.90;;;;;;4188933;28;20247;-65
2023/09/17 04:30:47;;;;;;;13.60;5.07;;;15.60;99.90;;;;;;4191335;28;20047;-65
2023/09/17 04:33:09;;;;;;;11.48;6.15;;;15.60;99.90;;;;;;4190807;28;20091;-65
2023/09/17 04:35:29;;;;;;;24.42;7.18;;;15.60;99.90;;;;;;4187674;28;20139;-66
2023/09/17 04:37:50;;;;;;;7.97;7.40;;;15.60;99.90;;;;;;4189201;28;20044;-65
2023/09/17 04:40:11;;;;;;;7.32;6.72;;;15.50;99.90;;;;;;4188604;28;20079;-65
2023/09/17 04:42:31;;;;;;;7.43;6.68;;;15.60;99.90;;;;;;4190722;28;20044;-65
2023/09/17 04:44:51;;;;;;;76.15;8.35;;;15.50;99.90;;;;;;4190473;28;20040;-66
2023/09/17 04:47:11;;;;;;;7.80;6.97;;;15.50;99.90;;;;;;4189823;28;20264;-65
2023/09/17 04:49:32;;;;;;;6.22;5.80;;;15.50;99.90;;;;;;4189327;28;20051;-65
2023/09/17 04:51:52;;;;;;;55.97;7.13;;;15.60;99.90;;;;;;4188443;28;20052;-65
2023/09/17 04:54:12;;;;;;;7.00;6.43;;;15.50;99.90;;;;;;4192864;28;20104;-66
2023/09/17 04:56:32;;;;;;;6.93;6.22;;;15.50;99.90;;;;;;4190651;28;20107;-66
2023/09/17 04:58:53;;;;;;;45.88;5.95;;;15.50;99.90;;;;;;4188931;28;20048;-65
2023/09/17 05:01:13;;;;;;;9.20;5.82;;;15.40;99.90;;;;;;4187739;28;20318;-65
2023/09/17 05:03:33;;;;;;;40.25;5.97;;;15.40;99.90;;;;;;4189089;28;20367;-66
2023/09/17 05:05:53;;;;;;;36.45;5.63;;;15.40;99.90;;;;;;4192065;28;20043;-65
2023/09/17 05:08:16;;;;;;;104.45;8.23;;;15.40;99.90;;;;;;4191327;28;20056;-65
2023/09/17 05:10:37;;;;;;;32.30;4.88;;;15.40;99.90;;;;;;4191874;28;20136;-66
2023/09/17 05:12:57;;;;;;;6.55;5.07;;;15.40;99.90;;;;;;4193678;28;20052;-66
2023/09/17 05:15:17;;;;;;;5.47;5.18;;;15.40;99.90;;;;;;4191839;28;20083;-66
2023/09/17 05:17:37;;;;;;;8.57;5.68;;;15.50;99.90;;;;;;4191347;28;20099;-66
2023/09/17 05:19:58;;;;;;;13.88;5.28;;;15.60;99.90;;;;;;4190685;28;20040;-65
2023/09/17 05:22:18;;;;;;;5.65;5.55;;;15.50;99.90;;;;;;4191759;28;20090;-66
2023/09/17 05:24:39;;;;;;;117.53;7.38;;;15.60;99.90;;;;;;4190776;28;20801;-66
2023/09/17 05:26:59;;;;;;;21.83;4.95;;;15.50;99.90;;;;;;4191138;28;20064;-66
2023/09/17 05:29:19;;;;;;;35.53;4.78;;;15.40;99.90;;;;;;4191847;28;20105;-66
2023/09/17 05:31:39;;;;;;;84.93;6.75;;;15.50;99.90;;;;;;4191950;28;20107;-66
2023/09/17 05:33:59;;;;;;;23.55;4.78;;;15.50;99.90;;;;;;4205507;28;20047;-66
2023/09/17 05:36:19;;;;;;;12.25;4.10;;;15.50;99.90;;;;;;4192797;28;20142;-66
2023/09/17 05:38:40;;;;;;;114.78;7.00;;;15.50;99.90;;;;;;4193035;28;20427;-66
2023/09/17 05:41:01;;;;;;;17.55;3.88;;;15.50;99.90;;;;;;4189953;28;20051;-66
2023/09/17 05:43:21;;;;;;;14.85;4.47;;;15.50;99.90;;;;;;4192542;28;20229;-66
2023/09/17 05:45:41;;;;;;;22.75;4.30;;;15.60;99.90;;;;;;4191476;28;20235;-66
2023/09/17 05:48:01;;;;;;;9.90;4.28;;;15.60;99.90;;;;;;4191084;28;20052;-66
2023/09/17 05:50:21;;;;;;;27.98;4.60;;;15.70;99.90;;;;;;4191312;28;20048;-65
2023/09/17 05:52:41;;;;;;;5.93;3.28;;;15.70;99.90;;;;;;4190744;28;20083;-66
2023/09/17 05:55:05;;;;;;;4.85;3.97;;;15.70;99.90;;;;;;4191747;28;20095;-65
2023/09/17 05:57:25;;;;;;;9.93;4.07;;;15.70;99.90;;;;;;4193274;28;20393;-65
2023/09/17 05:59:45;;;;;;;5.57;5.20;;;15.70;99.90;;;;;;4192961;28;20048;-66
2023/09/17 06:02:05;;;;;;;4.40;3.78;;;15.80;99.90;;;;;;4194300;28;20039;-65
2023/09/17 06:04:26;;;;;;;10.00;4.57;;;15.90;99.90;;;;;;4190710;28;20398;-65
2023/09/17 06:06:46;;;;;;;7.95;4.03;;;15.90;99.90;;;;;;4193371;28;20051;-66
2023/09/17 06:09:06;;;;;;;4.78;4.38;;;15.90;99.90;;;;;;4193221;28;20048;-65
2023/09/17 06:11:26;;;;;;;5.97;3.90;;;15.90;99.90;;;;;;4191585;28;20113;-65
2023/09/17 06:13:46;;;;;;;3.92;3.83;;;15.90;99.90;;;;;;4192118;28;20110;-65
2023/09/17 06:16:06;;;;;;;8.38;4.07;;;16.10;99.90;;;;;;4191198;28;20074;-65
2023/09/17 06:18:29;;;;;;;4.13;3.92;;;16.10;99.90;;;;;;4188883;28;20107;-65
2023/09/17 06:20:49;;;;;;;7.60;4.20;;;16.10;99.90;;;;;;4191113;28;20076;-65
2023/09/17 06:23:09;;;;;;;4.30;4.20;;;16.20;99.90;;;;;;4191788;28;20320;-66
2023/09/17 06:25:29;;;;;;;5.18;4.72;;;16.20;99.90;;;;;;4195773;28;20292;-65
2023/09/17 06:27:49;;;;;;;4.97;4.88;;;16.30;99.90;;;;;;4192660;28;20105;-66
2023/09/17 06:30:10;;;;;;;3.90;3.80;;;16.30;99.90;;;;;;4190717;28;20058;-65
2023/09/17 06:32:30;;;;;;;4.70;4.35;;;16.40;99.90;;;;;;4194549;28;20409;-65
2023/09/17 06:34:50;;;;;;;5.93;5.72;;;16.50;99.90;;;;;;4191330;28;20398;-65
2023/09/17 06:37:10;;;;;;;4.60;4.50;;;16.50;99.90;;;;;;4192665;28;20057;-65
2023/09/17 06:39:30;;;;;;;4.90;4.43;;;16.60;99.90;;;;;;4191221;28;20056;-65
2023/09/17 06:41:50;;;;;;;4.97;4.85;;;16.60;99.90;;;;;;4190248;28;20921;-65
2023/09/17 06:44:11;;;;;;;4.32;4.13;;;16.70;99.90;;;;;;4189563;28;20052;-65
2023/09/17 06:46:31;;;;;;;5.10;5.00;;;16.80;99.90;;;;;;4189484;28;20047;-65
2023/09/17 06:48:52;;;;;;;4.32;4.22;;;17.00;99.90;;;;;;4189855;28;20367;-65
2023/09/17 06:51:11;;;;;;;5.55;5.32;;;17.10;99.90;;;;;;4189844;28;20044;-65
2023/09/17 06:53:32;;;;;;;5.22;5.03;;;17.10;99.90;;;;;;4189393;28;20087;-65
2023/09/17 06:55:52;;;;;;;6.32;6.10;;;17.10;99.90;;;;;;4190821;28;20086;-65
2023/09/17 06:58:16;;;;;;;6.10;6.00;;;17.20;99.90;;;;;;4190260;28;20083;-64
2023/09/17 07:00:36;;;;;;;5.05;4.95;;;17.30;99.90;;;;;;4190092;28;20047;-64
2023/09/17 07:02:56;;;;;;;5.22;5.10;;;17.50;99.90;;;;;;4190894;28;20309;-64
2023/09/17 07:05:16;;;;;;;9.45;4.95;;;17.50;99.90;;;;;;4191216;28;20079;-64
2023/09/17 07:07:37;;;;;;;4.25;4.07;;;17.50;99.90;;;;;;4190745;28;20228;-64
2023/09/17 07:09:57;;;;;;;4.85;4.75;;;17.40;99.90;;;;;;4188584;28;20052;-64
2023/09/17 07:12:17;;;;;;;4.60;4.50;;;17.40;99.90;;;;;;4187437;28;20047;-64
2023/09/17 07:14:37;;;;;;;5.38;5.07;;;17.40;99.90;;;;;;4189956;28;20056;-63
2023/09/17 07:16:58;;;;;;;5.25;5.15;;;17.50;99.90;;;;;;4191254;28;20090;-63
2023/09/17 07:19:18;;;;;;;4.22;4.13;;;17.60;99.90;;;;;;4191656;28;20047;-63
2023/09/17 07:21:38;;;;;;;4.38;4.18;;;17.80;99.90;;;;;;4191981;28;20506;-63
2023/09/17 07:23:58;;;;;;;5.10;5.00;;;17.90;99.90;;;;;;4192020;28;20274;-63
2023/09/17 07:26:20;;;;;;;4.38;4.18;;;17.90;99.90;;;;;;4192876;28;20090;-63
2023/09/17 07:28:40;;;;;;;4.53;4.43;;;18.10;99.90;;;;;;4191453;28;20044;-63
2023/09/17 07:31:00;;;;;;;4.57;4.22;;;18.30;99.90;;;;;;4190882;28;20051;-62
2023/09/17 07:33:20;;;;;;;4.82;4.53;;;18.50;99.90;;;;;;4190137;28;20043;-62
2023/09/17 07:35:40;;;;;;;3.85;3.63;;;18.70;99.90;;;;;;4188282;28;20383;-62
2023/09/17 07:38:00;;;;;;;4.13;4.00;;;18.80;99.90;;;;;;4191393;28;20079;-62
2023/09/17 07:40:21;;;;;;;3.85;3.55;;;19.00;99.90;;;;;;4189995;28;20071;-60
2023/09/17 07:42:41;;;;;;;3.97;3.83;;;19.20;99.90;;;;;;4189545;28;20044;-63
2023/09/17 07:45:02;;;;;;;4.20;3.90;;;19.20;99.90;;;;;;4190871;28;20079;-63
2023/09/17 07:47:23;;;;;;;5.72;2.70;;;19.40;99.90;;;;;;4190484;28;20039;-63
2023/09/17 07:49:43;;;;;;;3.53;3.42;;;19.40;99.90;;;;;;4193203;28;20090;-63
2023/09/17 07:52:04;;;;;;;3.33;3.05;;;19.50;99.90;;;;;;4192520;28;20040;-65
2023/09/17 07:54:25;;;;;;;3.45;3.25;;;19.80;99.90;;;;;;4190014;28;20105;-62
2023/09/17 07:56:45;;;;;;;4.20;3.90;;;20.00;99.90;;;;;;4191324;28;20056;-61
2023/09/17 07:59:06;;;;;;;3.80;3.55;;;20.10;99.90;;;;;;4190377;28;20367;-58
2023/09/17 08:01:27;;;;;;;3.70;3.45;;;20.30;99.90;;;;;;4189239;28;20092;-60
2023/09/17 08:03:48;;;;;;;3.72;3.22;;;20.50;99.90;;;;;;4191115;28;20105;-60
2023/09/17 08:06:09;;;;;;;3.63;3.45;;;20.50;99.90;;;;;;4190536;28;20045;-60
2023/09/17 08:08:29;;;;;;;3.65;3.40;;;20.70;99.90;;;;;;4190444;28;20236;-60
2023/09/17 08:10:49;;;;;;;2.70;2.60;;;20.90;99.90;;;;;;4189756;28;20421;-60
2023/09/17 08:13:10;;;;;;;2.58;2.38;;;21.10;99.90;;;;;;4190852;28;20307;-60
2023/09/17 08:15:30;;;;;;;5.90;2.42;;;21.10;99.90;;;;;;4191342;28;20095;-60
2023/09/17 08:17:51;;;;;;;2.72;2.42;;;21.10;99.90;;;;;;4190276;28;20063;-60
2023/09/17 08:20:12;;;;;;;5.18;2.78;;;21.20;99.90;;;;;;4189288;28;20044;-60
2023/09/17 08:22:32;;;;;;;3.28;2.97;;;21.30;99.90;;;;;;4188684;28;20082;-60
2023/09/17 08:24:52;;;;;;;2.08;1.98;;;21.30;99.90;;;;;;4189844;28;20060;-60
2023/09/17 08:27:15;;;;;;;2.45;2.35;;;21.30;99.90;;;;;;4188850;28;20048;-60
2023/09/17 08:29:36;;;;;;;2.70;2.53;;;21.60;99.90;;;;;;4188494;28;20055;-58
2023/09/17 08:31:57;;;;;;;3.15;2.47;;;21.80;99.90;;;;;;4190103;28;20303;-58
2023/09/17 08:34:17;;;;;;;3.72;2.17;;;22.00;99.90;;;;;;4190145;28;20048;-58
2023/09/17 08:36:42;;;;;;;2.38;2.15;;;22.30;99.90;;;;;;4190223;28;20040;-58
2023/09/17 08:39:06;;;;;;;2.05;2.00;;;22.50;99.90;;;;;;4189343;28;20052;-58
2023/09/17 08:41:26;;;;;;;2.45;2.33;;;22.60;99.90;;;;;;4188984;28;20036;-58
2023/09/17 08:43:46;;;;;;;2.67;2.35;;;22.70;99.90;;;;;;4192322;28;20340;-58
2023/09/17 08:46:06;;;;;;;1.95;1.85;;;22.90;99.90;;;;;;4194232;28;20073;-58
2023/09/17 08:48:27;;;;;;;3.28;2.35;;;22.90;99.90;;;;;;4191840;28;20062;-58
2023/09/17 08:50:50;;;;;;;2.20;2.10;;;23.20;99.90;;;;;;4192283;28;20047;-58
2023/09/17 08:53:14;;;;;;;3.67;2.47;;;23.40;99.90;;;;;;4192184;28;20076;-58
2023/09/17 08:55:35;;;;;;;2.38;2.28;;;23.60;99.90;;;;;;4192325;28;20105;-58
2023/09/17 08:58:11;;;;;;;2.75;1.73;;;23.50;99.90;;;;;;4195212;28;20075;-58
2023/09/17 09:00:33;;;;;;;2.45;1.77;;;23.40;99.90;;;;;;4192474;28;20473;-58
2023/09/17 09:03:01;;;;;;;2.22;2.13;;;23.60;99.90;;;;;;4193919;28;20083;-58
2023/09/17 09:05:25;;;;;;;1.88;1.77;;;23.90;99.90;;;;;;4192839;28;20068;-58
2023/09/17 09:07:47;;;;;;;2.03;1.83;;;24.10;99.90;;;;;;4190530;28;20047;-58
2023/09/17 09:10:09;;;;;;;1.90;1.67;;;24.40;99.90;;;;;;4191566;28;20074;-58
2023/09/17 09:12:30;;;;;;;1.52;1.50;;;24.40;99.90;;;;;;4192200;28;20044;-58
2023/09/17 09:14:50;;;;;;;5.07;1.25;;;24.40;99.90;;;;;;4192126;28;20080;-58
2023/09/17 09:17:12;;;;;;;2.42;1.30;;;24.70;99.90;;;;;;4188971;28;20132;-56
2023/09/17 09:19:32;;;;;;;1.93;1.73;;;24.70;99.90;;;;;;4193834;28;20059;-56
2023/09/17 09:21:53;;;;;;;1.63;1.58;;;24.80;99.90;;;;;;4194418;28;20346;-56
2023/09/17 09:24:13;;;;;;;1.60;1.20;;;24.60;99.90;;;;;;4191435;28;20095;-55
2023/09/17 09:26:36;;;;;;;2.28;1.80;;;24.60;99.90;;;;;;4194962;28;20390;-56
2023/09/17 09:28:56;;;;;;;2.05;1.73;;;24.70;99.90;;;;;;4193882;28;20071;-56
2023/09/17 09:31:18;;;;;;;1.63;1.52;;;24.70;99.90;;;;;;4192418;28;20105;-56
2023/09/17 09:33:38;;;;;;;3.30;1.42;;;24.60;99.90;;;;;;4192269;28;20052;-55
2023/09/17 09:36:00;;;;;;;1.35;1.27;;;24.70;99.90;;;;;;4192058;28;20040;-56
2023/09/17 09:38:20;;;;;;;1.60;1.50;;;24.90;99.90;;;;;;4190268;28;20158;-58
2023/09/17 09:40:42;;;;;;;1.92;1.77;;;25.00;99.90;;;;;;4191748;28;20402;-56
2023/09/17 09:43:02;;;;;;;2.75;1.42;;;25.30;99.90;;;;;;4191335;28;20386;-56
2023/09/17 09:45:23;;;;;;;2.85;1.10;;;25.30;99.90;;;;;;4196675;28;20056;-55
2023/09/17 09:47:51;;;;;;;2.90;1.38;;;25.70;99.90;;;;;;4190179;28;20398;-56
2023/09/17 09:50:22;;;;;;;2.13;1.65;;;25.80;99.90;;;;;;4190849;28;20043;-55
2023/09/17 09:52:42;;;;;;;4.43;1.40;;;25.90;99.90;;;;;;4191545;28;20044;-56
2023/09/17 09:55:06;;;;;;;1.38;1.13;;;26.10;99.90;;;;;;4189772;28;20056;-56
2023/09/17 09:57:26;;;;;;;1.40;0.90;;;26.10;99.90;;;;;;4190809;28;20036;-56
2023/09/17 09:59:50;;;;;;;1.88;1.00;;;26.20;99.90;;;;;;4191632;28;20060;-56
2023/09/17 10:02:13;;;;;;;1.27;1.10;;;26.40;99.70;;;;;;4191628;28;20228;-56
2023/09/17 10:04:37;;;;;;;1.83;1.52;;;26.50;98.50;;;;;;4191997;28;20048;-56
2023/09/17 10:06:58;;;;;;;4.45;1.20;;;26.20;97.90;;;;;;4191497;28;20040;-56
2023/09/17 10:09:20;;;;;;;1.70;0.82;;;26.30;99.90;;;;;;4191688;28;20060;-56
2023/09/17 10:11:40;;;;;;;3.25;0.93;;;26.70;98.20;;;;;;4192827;28;20044;-56
2023/09/17 10:14:05;;;;;;;1.55;0.90;;;26.80;98.30;;;;;;4191887;28;20048;-56
2023/09/17 10:16:26;;;;;;;2.33;1.38;;;26.80;98.70;;;;;;4193274;28;20075;-56
2023/09/17 10:18:47;;;;;;;2.25;0.90;;;26.90;97.50;;;;;;4191110;28;20048;-56
2023/09/17 10:21:09;;;;;;;2.85;1.00;;;26.50;97.40;;;;;;4192565;28;20043;-56
2023/09/17 10:23:31;;;;;;;4.43;1.00;;;26.70;98.80;;;;;;4193620;28;20051;-56
2023/09/17 10:25:55;;;;;;;2.55;1.00;;;26.80;98.30;;;;;;4191010;28;20101;-55
2023/09/17 10:28:17;;;;;;;1.15;1.00;;;26.90;99.90;;;;;;4191481;28;20036;-56
2023/09/17 10:30:38;;;;;;;1.97;1.10;;;26.50;98.00;;;;;;4191427;28;20243;-55
2023/09/17 10:33:01;;;;;;;2.00;0.85;;;26.40;98.70;;;;;;4190827;28;20083;-56
2023/09/17 10:35:21;;;;;;;1.20;0.95;;;26.30;98.40;;;;;;4190599;28;20052;-56
2023/09/17 10:37:42;;;;;;;1.30;1.20;;;26.00;99.50;;;;;;4191358;28;20063;-56
2023/09/17 10:40:09;;;;;;;1.55;1.00;;;25.70;98.60;;;;;;4194159;28;20048;-56
2023/09/17 10:42:32;;;;;;;5.13;1.08;;;25.70;99.80;;;;;;4191932;28;20064;-56
2023/09/17 10:44:55;;;;;;;2.88;1.00;;;26.20;99.20;;;;;;4193332;28;20083;-56
2023/09/17 10:47:18;;;;;;;7.22;1.20;;;26.40;99.90;;;;;;4193587;28;20367;-56
2023/09/17 10:49:42;;;;;;;5.07;1.08;;;26.60;99.70;;;;;;4191695;28;20074;-56
2023/09/17 10:52:03;;;;;;;1.27;1.15;;;26.60;98.60;;;;;;4192387;28;20052;-56
2023/09/17 10:54:23;;;;;;;1.42;1.00;;;26.50;99.10;;;;;;4191225;28;20267;-56
2023/09/17 10:56:45;;;;;;;4.45;1.20;;;26.40;98.20;;;;;;4190875;28;20451;-56
2023/09/17 10:59:06;;;;;;;3.40;1.00;;;25.80;98.40;;;;;;4190098;28;20079;-56
2023/09/17 11:01:31;;;;;;;4.75;1.05;;;25.60;99.80;;;;;;4190612;28;20282;-56
2023/09/17 11:03:55;;;;;;;7.28;1.30;;;25.60;99.90;;;;;;4189243;28;20371;-56
2023/09/17 11:06:23;;;;;;;3.30;1.17;;;26.00;99.60;;;;;;4190084;28;20083;-56
2023/09/17 11:08:45;;;;;;;3.28;1.25;;;26.10;98.70;;;;;;4194398;28;20051;-56
2023/09/17 11:11:05;;;;;;;5.40;1.73;;;26.00;98.90;;;;;;4191929;28;20091;-55
2023/09/17 11:13:25;;;;;;;5.40;1.00;;;26.10;98.00;;;;;;4190273;28;20064;-56
2023/09/17 11:15:47;;;;;;;3.42;1.13;;;26.20;99.20;;;;;;4193014;28;20082;-55
2023/09/17 11:18:08;;;;;;;6.13;1.63;;;26.50;98.60;;;;;;4189883;28;20320;-56
2023/09/17 11:20:29;;;;;;;3.20;1.00;;;26.60;97.20;;;;;;4189996;28;20043;-56
2023/09/17 11:22:52;;;;;;;3.83;1.52;;;26.60;98.10;;;;;;4189651;28;20048;-56
2023/09/17 11:25:12;;;;;;;3.50;1.00;;;26.80;99.10;;;;;;4188951;28;20062;-56
2023/09/17 11:27:49;;;;;;;3.72;1.00;;;27.10;98.20;;;;;;4188356;28;20067;-56
2023/09/17 11:30:18;;;;;;;6.45;1.00;;;27.10;97.40;;;;;;4190187;28;20109;-56
2023/09/17 11:32:38;;;;;;;4.32;1.20;;;27.00;97.50;;;;;;4189693;28;20099;-56
2023/09/17 11:34:58;;;;;;;1.70;0.90;;;26.70;97.20;;;;;;4190318;28;20104;-56
2023/09/17 11:37:20;;;;;;;4.32;0.90;;;26.50;97.70;;;;;;4190462;28;20063;-57
2023/09/17 11:39:52;;;;;;;10.45;1.38;;;27.00;98.20;;;;;;4191423;28;20286;-58
2023/09/17 11:42:13;;;;;;;5.37;1.20;;;27.00;97.40;;;;;;4190699;28;20052;-55
2023/09/17 11:44:35;;;;;;;6.68;1.52;;;27.10;97.10;;;;;;4190877;28;20356;-57
2023/09/17 11:46:56;;;;;;;4.65;1.05;;;27.00;97.70;;;;;;4190654;28;20043;-57
2023/09/17 11:49:18;;;;;;;3.22;1.15;;;26.90;97.20;;;;;;4189999;28;20051;-57
2023/09/17 11:51:43;;;;;;;3.85;1.00;;;26.70;97.30;;;;;;4189820;28;20104;-57
2023/09/17 11:54:05;;;;;;;6.10;1.08;;;26.80;97.40;;;;;;4192254;28;20087;-57
2023/09/17 11:56:49;;;;;;;9.57;2.05;;;26.60;97.70;;;;;;4189607;28;20052;-57
2023/09/17 11:59:10;;;;;;;7.65;0.82;;;26.50;98.20;;;;;;4189928;28;20055;-57
2023/09/17 12:01:42;;;;;;;3.38;1.50;;;26.40;97.60;;;;;;4189805;28;20084;-56
2023/09/17 12:04:05;;;;;;;5.47;1.00;;;26.30;96.90;;;;;;4189822;28;20099;-57
2023/09/17 12:06:27;;;;;;;2.75;1.17;;;26.50;97.90;;;;;;4192540;28;20128;-57
2023/09/17 12:08:48;;;;;;;3.10;1.10;;;26.20;96.60;;;;;;4190280;28;20052;-57
2023/09/17 12:11:18;;;;;;;4.72;1.20;;;26.10;97.10;;;;;;4190649;28;20048;-56
2023/09/17 12:13:39;;;;;;;5.90;1.17;;;26.20;97.40;;;;;;4190094;28;20052;-56
2023/09/17 12:16:01;;;;;;;3.63;1.25;;;26.30;98.30;;;;;;4188205;28;20236;-56